sensor_id;sensor_type;location;lat;lon;timestamp;P1;durP1;ratioP1;P2;durP2;ratioP2
9541;SDS011;4809;48.224;8.572;2022-07-10T00:00:31;3.10;;;2.80;;
9541;SDS011;4809;48.224;8.572;2022-07-10T00:02:57;3.90;;;3.13;;
9541;SDS011;4809;48.224;8.572;2022-07-10T00:05:23;4.07;;;3.08;;
9541;SDS011;4809;48.224;8.572;2022-07-10T00:07:50;3.42;;;3.13;;
9541;SDS011;4809;48.224;8.572;2022-07-10T00:10:19;3.40;;;3.10;;
9541;SDS011;4809;48.224;8.572;2022-07-10T00:12:46;3.83;;;3.15;;
9541;SDS011;4809;48.224;8.572;2022-07-10T00:15:13;3.30;;;3.00;;
9541;SDS011;4809;48.224;8.572;2022-07-10T00:17:40;4.38;;;2.97;;
9541;SDS011;4809;48.224;8.572;2022-07-10T00:20:07;3.78;;;3.30;;
9541;SDS011;4809;48.224;8.572;2022-07-10T00:22:33;3.38;;;3.10;;
9541;SDS011;4809;48.224;8.572;2022-07-10T00:25:06;3.95;;;3.25;;
9541;SDS011;4809;48.224;8.572;2022-07-10T00:27:34;3.45;;;3.15;;
9541;SDS011;4809;48.224;8.572;2022-07-10T00:30:00;3.45;;;3.15;;
9541;SDS011;4809;48.224;8.572;2022-07-10T00:32:26;3.45;;;3.13;;
9541;SDS011;4809;48.224;8.572;2022-07-10T00:34:52;3.40;;;3.10;;
9541;SDS011;4809;48.224;8.572;2022-07-10T00:37:18;4.00;;;3.33;;
9541;SDS011;4809;48.224;8.572;2022-07-10T00:39:46;3.67;;;3.15;;
9541;SDS011;4809;48.224;8.572;2022-07-10T00:42:12;3.60;;;3.30;;
9541;SDS011;4809;48.224;8.572;2022-07-10T00:44:39;3.90;;;3.30;;
9541;SDS011;4809;48.224;8.572;2022-07-10T00:47:06;3.85;;;3.30;;
9541;SDS011;4809;48.224;8.572;2022-07-10T00:49:33;3.92;;;3.47;;
9541;SDS011;4809;48.224;8.572;2022-07-10T00:51:59;4.55;;;3.50;;
9541;SDS011;4809;48.224;8.572;2022-07-10T00:54:28;3.78;;;3.47;;
9541;SDS011;4809;48.224;8.572;2022-07-10T00:56:55;3.92;;;3.53;;
9541;SDS011;4809;48.224;8.572;2022-07-10T00:59:22;5.68;;;3.75;;
9541;SDS011;4809;48.224;8.572;2022-07-10T01:01:49;3.75;;;3.38;;
9541;SDS011;4809;48.224;8.572;2022-07-10T01:04:15;4.53;;;4.05;;
9541;SDS011;4809;48.224;8.572;2022-07-10T01:06:41;4.68;;;3.78;;
9541;SDS011;4809;48.224;8.572;2022-07-10T01:09:07;4.00;;;3.70;;
9541;SDS011;4809;48.224;8.572;2022-07-10T01:11:33;5.78;;;4.07;;
9541;SDS011;4809;48.224;8.572;2022-07-10T01:14:00;4.68;;;4.00;;
9541;SDS011;4809;48.224;8.572;2022-07-10T01:16:26;4.40;;;4.00;;
9541;SDS011;4809;48.224;8.572;2022-07-10T01:18:52;4.30;;;3.88;;
9541;SDS011;4809;48.224;8.572;2022-07-10T01:21:33;3.80;;;3.50;;
9541;SDS011;4809;48.224;8.572;2022-07-10T01:24:03;4.03;;;3.60;;
9541;SDS011;4809;48.224;8.572;2022-07-10T01:26:31;3.97;;;3.58;;
9541;SDS011;4809;48.224;8.572;2022-07-10T01:28:57;3.88;;;3.58;;
9541;SDS011;4809;48.224;8.572;2022-07-10T01:31:26;3.70;;;3.40;;
9541;SDS011;4809;48.224;8.572;2022-07-10T01:33:52;3.45;;;3.25;;
9541;SDS011;4809;48.224;8.572;2022-07-10T01:36:19;3.70;;;3.40;;
9541;SDS011;4809;48.224;8.572;2022-07-10T01:38:52;4.53;;;3.60;;
9541;SDS011;4809;48.224;8.572;2022-07-10T01:41:19;4.55;;;3.50;;
9541;SDS011;4809;48.224;8.572;2022-07-10T01:43:44;4.00;;;3.50;;
9541;SDS011;4809;48.224;8.572;2022-07-10T01:46:11;3.67;;;3.33;;
9541;SDS011;4809;48.224;8.572;2022-07-10T01:48:37;3.88;;;3.50;;
9541;SDS011;4809;48.224;8.572;2022-07-10T01:51:04;3.80;;;3.40;;
9541;SDS011;4809;48.224;8.572;2022-07-10T01:53:30;3.65;;;3.30;;
9541;SDS011;4809;48.224;8.572;2022-07-10T01:55:56;4.18;;;3.53;;
9541;SDS011;4809;48.224;8.572;2022-07-10T01:58:22;3.55;;;3.25;;
9541;SDS011;4809;48.224;8.572;2022-07-10T02:00:48;3.50;;;3.20;;
9541;SDS011;4809;48.224;8.572;2022-07-10T02:03:13;3.90;;;3.60;;
9541;SDS011;4809;48.224;8.572;2022-07-10T02:05:57;3.70;;;3.40;;
9541;SDS011;4809;48.224;8.572;2022-07-10T02:08:23;3.63;;;3.30;;
9541;SDS011;4809;48.224;8.572;2022-07-10T02:10:49;4.60;;;3.50;;
9541;SDS011;4809;48.224;8.572;2022-07-10T02:13:15;3.70;;;3.40;;
9541;SDS011;4809;48.224;8.572;2022-07-10T02:15:43;3.60;;;3.30;;
9541;SDS011;4809;48.224;8.572;2022-07-10T02:18:08;3.90;;;3.55;;
9541;SDS011;4809;48.224;8.572;2022-07-10T02:20:34;3.88;;;3.47;;
9541;SDS011;4809;48.224;8.572;2022-07-10T02:23:01;3.90;;;3.60;;
9541;SDS011;4809;48.224;8.572;2022-07-10T02:25:27;4.10;;;3.70;;
9541;SDS011;4809;48.224;8.572;2022-07-10T02:27:53;4.15;;;3.85;;
9541;SDS011;4809;48.224;8.572;2022-07-10T02:30:19;4.93;;;3.72;;
9541;SDS011;4809;48.224;8.572;2022-07-10T02:32:45;5.20;;;3.95;;
9541;SDS011;4809;48.224;8.572;2022-07-10T02:35:10;5.28;;;4.18;;
9541;SDS011;4809;48.224;8.572;2022-07-10T02:37:36;4.57;;;3.83;;
9541;SDS011;4809;48.224;8.572;2022-07-10T02:40:02;4.55;;;4.15;;
9541;SDS011;4809;48.224;8.572;2022-07-10T02:42:28;5.03;;;4.00;;
9541;SDS011;4809;48.224;8.572;2022-07-10T02:44:54;5.22;;;3.90;;
9541;SDS011;4809;48.224;8.572;2022-07-10T02:47:20;4.30;;;3.88;;
9541;SDS011;4809;48.224;8.572;2022-07-10T02:49:45;4.13;;;3.78;;
9541;SDS011;4809;48.224;8.572;2022-07-10T02:52:11;4.60;;;4.20;;
9541;SDS011;4809;48.224;8.572;2022-07-10T02:54:37;4.95;;;4.45;;
9541;SDS011;4809;48.224;8.572;2022-07-10T02:57:03;4.63;;;4.22;;
9541;SDS011;4809;48.224;8.572;2022-07-10T02:59:29;5.15;;;4.65;;
9541;SDS011;4809;48.224;8.572;2022-07-10T03:01:55;4.65;;;4.22;;
9541;SDS011;4809;48.224;8.572;2022-07-10T03:04:21;5.32;;;4.25;;
9541;SDS011;4809;48.224;8.572;2022-07-10T03:06:46;5.03;;;4.53;;
9541;SDS011;4809;48.224;8.572;2022-07-10T03:09:12;5.28;;;4.35;;
9541;SDS011;4809;48.224;8.572;2022-07-10T03:11:38;4.97;;;4.30;;
9541;SDS011;4809;48.224;8.572;2022-07-10T03:14:04;5.00;;;4.50;;
9541;SDS011;4809;48.224;8.572;2022-07-10T03:16:31;5.10;;;4.50;;
9541;SDS011;4809;48.224;8.572;2022-07-10T03:18:56;6.05;;;4.70;;
9541;SDS011;4809;48.224;8.572;2022-07-10T03:21:22;4.60;;;4.20;;
9541;SDS011;4809;48.224;8.572;2022-07-10T03:23:48;5.80;;;4.78;;
9541;SDS011;4809;48.224;8.572;2022-07-10T03:26:14;5.38;;;4.38;;
9541;SDS011;4809;48.224;8.572;2022-07-10T03:28:39;5.07;;;4.57;;
9541;SDS011;4809;48.224;8.572;2022-07-10T03:31:06;4.80;;;4.40;;
9541;SDS011;4809;48.224;8.572;2022-07-10T03:33:31;4.40;;;4.00;;
9541;SDS011;4809;48.224;8.572;2022-07-10T03:35:57;4.72;;;4.22;;
9541;SDS011;4809;48.224;8.572;2022-07-10T03:38:23;4.80;;;4.30;;
9541;SDS011;4809;48.224;8.572;2022-07-10T03:40:48;5.25;;;4.30;;
9541;SDS011;4809;48.224;8.572;2022-07-10T03:43:14;5.07;;;4.30;;
9541;SDS011;4809;48.224;8.572;2022-07-10T03:45:40;5.20;;;4.70;;
9541;SDS011;4809;48.224;8.572;2022-07-10T03:48:06;5.03;;;4.53;;
9541;SDS011;4809;48.224;8.572;2022-07-10T03:50:32;4.97;;;4.40;;
9541;SDS011;4809;48.224;8.572;2022-07-10T03:52:58;4.60;;;4.20;;
9541;SDS011;4809;48.224;8.572;2022-07-10T03:55:24;4.50;;;4.18;;
9541;SDS011;4809;48.224;8.572;2022-07-10T03:57:50;4.50;;;4.05;;
9541;SDS011;4809;48.224;8.572;2022-07-10T04:00:26;4.55;;;4.15;;
9541;SDS011;4809;48.224;8.572;2022-07-10T04:02:58;4.57;;;4.05;;
9541;SDS011;4809;48.224;8.572;2022-07-10T04:05:26;4.57;;;4.10;;
9541;SDS011;4809;48.224;8.572;2022-07-10T04:07:53;4.60;;;4.20;;
9541;SDS011;4809;48.224;8.572;2022-07-10T04:10:19;5.40;;;4.20;;
9541;SDS011;4809;48.224;8.572;2022-07-10T04:12:44;5.13;;;4.30;;
9541;SDS011;4809;48.224;8.572;2022-07-10T04:15:10;5.40;;;4.40;;
9541;SDS011;4809;48.224;8.572;2022-07-10T04:17:36;4.70;;;4.28;;
9541;SDS011;4809;48.224;8.572;2022-07-10T04:20:02;4.75;;;4.22;;
9541;SDS011;4809;48.224;8.572;2022-07-10T04:22:28;4.50;;;4.10;;
9541;SDS011;4809;48.224;8.572;2022-07-10T04:24:54;4.53;;;4.13;;
9541;SDS011;4809;48.224;8.572;2022-07-10T04:27:20;4.60;;;4.20;;
9541;SDS011;4809;48.224;8.572;2022-07-10T04:29:46;5.18;;;4.32;;
9541;SDS011;4809;48.224;8.572;2022-07-10T04:32:12;5.18;;;4.68;;
9541;SDS011;4809;48.224;8.572;2022-07-10T04:34:37;5.25;;;4.40;;
9541;SDS011;4809;48.224;8.572;2022-07-10T04:37:04;5.10;;;4.60;;
9541;SDS011;4809;48.224;8.572;2022-07-10T04:39:30;4.50;;;4.10;;
9541;SDS011;4809;48.224;8.572;2022-07-10T04:41:56;4.20;;;3.80;;
9541;SDS011;4809;48.224;8.572;2022-07-10T04:44:21;4.50;;;4.10;;
9541;SDS011;4809;48.224;8.572;2022-07-10T04:46:47;4.50;;;4.10;;
9541;SDS011;4809;48.224;8.572;2022-07-10T04:49:13;6.63;;;4.50;;
9541;SDS011;4809;48.224;8.572;2022-07-10T04:51:38;4.28;;;3.70;;
9541;SDS011;4809;48.224;8.572;2022-07-10T04:54:04;4.95;;;4.55;;
9541;SDS011;4809;48.224;8.572;2022-07-10T04:56:30;5.18;;;4.75;;
9541;SDS011;4809;48.224;8.572;2022-07-10T04:58:55;5.95;;;5.10;;
9541;SDS011;4809;48.224;8.572;2022-07-10T05:01:21;6.40;;;5.80;;
9541;SDS011;4809;48.224;8.572;2022-07-10T05:03:47;7.35;;;5.93;;
9541;SDS011;4809;48.224;8.572;2022-07-10T05:06:13;6.38;;;5.75;;
9541;SDS011;4809;48.224;8.572;2022-07-10T05:08:38;6.35;;;5.55;;
9541;SDS011;4809;48.224;8.572;2022-07-10T05:11:04;6.75;;;6.05;;
9541;SDS011;4809;48.224;8.572;2022-07-10T05:13:30;6.07;;;5.57;;
9541;SDS011;4809;48.224;8.572;2022-07-10T05:15:56;7.15;;;6.45;;
9541;SDS011;4809;48.224;8.572;2022-07-10T05:18:21;7.50;;;6.80;;
9541;SDS011;4809;48.224;8.572;2022-07-10T05:20:47;7.53;;;6.82;;
9541;SDS011;4809;48.224;8.572;2022-07-10T05:23:14;8.45;;;7.63;;
9541;SDS011;4809;48.224;8.572;2022-07-10T05:25:41;7.75;;;7.05;;
9541;SDS011;4809;48.224;8.572;2022-07-10T05:28:06;8.15;;;7.35;;
9541;SDS011;4809;48.224;8.572;2022-07-10T05:30:32;7.88;;;7.10;;
9541;SDS011;4809;48.224;8.572;2022-07-10T05:32:58;8.07;;;7.07;;
9541;SDS011;4809;48.224;8.572;2022-07-10T05:35:24;9.23;;;7.88;;
9541;SDS011;4809;48.224;8.572;2022-07-10T05:37:51;8.02;;;7.25;;
9541;SDS011;4809;48.224;8.572;2022-07-10T05:40:17;8.57;;;7.53;;
9541;SDS011;4809;48.224;8.572;2022-07-10T05:42:43;8.07;;;7.38;;
9541;SDS011;4809;48.224;8.572;2022-07-10T05:45:10;8.93;;;8.13;;
9541;SDS011;4809;48.224;8.572;2022-07-10T05:47:36;8.88;;;7.95;;
9541;SDS011;4809;48.224;8.572;2022-07-10T05:50:02;9.48;;;8.50;;
9541;SDS011;4809;48.224;8.572;2022-07-10T05:52:28;8.32;;;7.50;;
9541;SDS011;4809;48.224;8.572;2022-07-10T05:54:55;8.50;;;7.60;;
9541;SDS011;4809;48.224;8.572;2022-07-10T05:57:21;8.50;;;7.50;;
9541;SDS011;4809;48.224;8.572;2022-07-10T05:59:47;7.75;;;7.05;;
9541;SDS011;4809;48.224;8.572;2022-07-10T06:02:13;8.38;;;7.53;;
9541;SDS011;4809;48.224;8.572;2022-07-10T06:04:38;8.65;;;7.75;;
9541;SDS011;4809;48.224;8.572;2022-07-10T06:07:04;7.72;;;7.03;;
9541;SDS011;4809;48.224;8.572;2022-07-10T06:09:30;8.50;;;7.68;;
9541;SDS011;4809;48.224;8.572;2022-07-10T06:11:56;8.45;;;7.63;;
9541;SDS011;4809;48.224;8.572;2022-07-10T06:14:21;7.88;;;7.10;;
9541;SDS011;4809;48.224;8.572;2022-07-10T06:16:47;7.88;;;6.93;;
9541;SDS011;4809;48.224;8.572;2022-07-10T06:19:13;7.10;;;6.40;;
9541;SDS011;4809;48.224;8.572;2022-07-10T06:21:38;7.35;;;6.57;;
9541;SDS011;4809;48.224;8.572;2022-07-10T06:24:04;7.82;;;6.15;;
9541;SDS011;4809;48.224;8.572;2022-07-10T06:26:30;7.30;;;6.50;;
9541;SDS011;4809;48.224;8.572;2022-07-10T06:28:55;6.55;;;5.95;;
9541;SDS011;4809;48.224;8.572;2022-07-10T06:31:21;6.40;;;5.68;;
9541;SDS011;4809;48.224;8.572;2022-07-10T06:33:47;6.43;;;5.70;;
9541;SDS011;4809;48.224;8.572;2022-07-10T06:36:13;5.60;;;5.07;;
9541;SDS011;4809;48.224;8.572;2022-07-10T06:38:38;5.97;;;4.80;;
9541;SDS011;4809;48.224;8.572;2022-07-10T06:41:04;5.65;;;4.85;;
9541;SDS011;4809;48.224;8.572;2022-07-10T06:43:30;6.20;;;4.70;;
9541;SDS011;4809;48.224;8.572;2022-07-10T06:45:56;6.30;;;5.45;;
9541;SDS011;4809;48.224;8.572;2022-07-10T06:48:21;6.00;;;4.50;;
9541;SDS011;4809;48.224;8.572;2022-07-10T06:50:48;5.60;;;4.45;;
9541;SDS011;4809;48.224;8.572;2022-07-10T06:53:14;6.00;;;4.93;;
9541;SDS011;4809;48.224;8.572;2022-07-10T06:55:40;5.30;;;4.75;;
9541;SDS011;4809;48.224;8.572;2022-07-10T06:58:06;5.55;;;5.05;;
9541;SDS011;4809;48.224;8.572;2022-07-10T07:00:31;7.07;;;5.15;;
9541;SDS011;4809;48.224;8.572;2022-07-10T07:02:57;6.22;;;4.70;;
9541;SDS011;4809;48.224;8.572;2022-07-10T07:05:22;5.20;;;4.70;;
9541;SDS011;4809;48.224;8.572;2022-07-10T07:07:48;5.75;;;4.43;;
9541;SDS011;4809;48.224;8.572;2022-07-10T07:10:14;5.47;;;4.63;;
9541;SDS011;4809;48.224;8.572;2022-07-10T07:12:40;5.07;;;4.32;;
9541;SDS011;4809;48.224;8.572;2022-07-10T07:15:05;4.75;;;4.20;;
9541;SDS011;4809;48.224;8.572;2022-07-10T07:17:32;6.72;;;4.55;;
9541;SDS011;4809;48.224;8.572;2022-07-10T07:20:11;7.18;;;4.50;;
9541;SDS011;4809;48.224;8.572;2022-07-10T07:22:56;5.20;;;4.38;;
9541;SDS011;4809;48.224;8.572;2022-07-10T07:25:40;4.60;;;4.07;;
9541;SDS011;4809;48.224;8.572;2022-07-10T07:28:11;5.15;;;4.30;;
9541;SDS011;4809;48.224;8.572;2022-07-10T07:30:40;5.80;;;3.90;;
9541;SDS011;4809;48.224;8.572;2022-07-10T07:33:06;5.75;;;4.15;;
9541;SDS011;4809;48.224;8.572;2022-07-10T07:35:32;5.80;;;3.97;;
9541;SDS011;4809;48.224;8.572;2022-07-10T07:37:58;4.30;;;3.90;;
9541;SDS011;4809;48.224;8.572;2022-07-10T07:40:23;5.43;;;3.75;;
9541;SDS011;4809;48.224;8.572;2022-07-10T07:42:50;5.63;;;3.80;;
9541;SDS011;4809;48.224;8.572;2022-07-10T07:45:16;5.90;;;3.75;;
9541;SDS011;4809;48.224;8.572;2022-07-10T07:50:19;5.35;;;4.13;;
9541;SDS011;4809;48.224;8.572;2022-07-10T07:52:46;5.20;;;4.00;;
9541;SDS011;4809;48.224;8.572;2022-07-10T07:55:13;5.38;;;3.97;;
9541;SDS011;4809;48.224;8.572;2022-07-10T07:57:41;4.25;;;3.63;;
9541;SDS011;4809;48.224;8.572;2022-07-10T08:00:08;4.90;;;3.63;;
9541;SDS011;4809;48.224;8.572;2022-07-10T08:02:35;4.47;;;3.60;;
9541;SDS011;4809;48.224;8.572;2022-07-10T08:05:02;5.43;;;3.63;;
9541;SDS011;4809;48.224;8.572;2022-07-10T08:07:36;3.88;;;3.50;;
9541;SDS011;4809;48.224;8.572;2022-07-10T08:10:10;4.05;;;3.65;;
9541;SDS011;4809;48.224;8.572;2022-07-10T08:12:38;5.63;;;3.75;;
9541;SDS011;4809;48.224;8.572;2022-07-10T08:15:04;3.78;;;3.15;;
9541;SDS011;4809;48.224;8.572;2022-07-10T08:17:34;4.43;;;3.10;;
9541;SDS011;4809;48.224;8.572;2022-07-10T08:20:00;5.13;;;3.10;;
9541;SDS011;4809;48.224;8.572;2022-07-10T08:22:26;4.82;;;3.42;;
9541;SDS011;4809;48.224;8.572;2022-07-10T08:24:52;4.68;;;3.22;;
9541;SDS011;4809;48.224;8.572;2022-07-10T08:27:17;5.07;;;3.22;;
9541;SDS011;4809;48.224;8.572;2022-07-10T08:29:43;4.55;;;3.28;;
9541;SDS011;4809;48.224;8.572;2022-07-10T08:32:09;3.92;;;3.20;;
9541;SDS011;4809;48.224;8.572;2022-07-10T08:34:35;3.78;;;3.20;;
9541;SDS011;4809;48.224;8.572;2022-07-10T08:37:02;3.47;;;3.10;;
9541;SDS011;4809;48.224;8.572;2022-07-10T08:39:28;3.50;;;3.20;;
9541;SDS011;4809;48.224;8.572;2022-07-10T08:41:54;5.47;;;3.33;;
9541;SDS011;4809;48.224;8.572;2022-07-10T08:44:20;3.80;;;3.30;;
9541;SDS011;4809;48.224;8.572;2022-07-10T08:46:46;4.07;;;3.25;;
9541;SDS011;4809;48.224;8.572;2022-07-10T08:49:12;3.95;;;3.10;;
9541;SDS011;4809;48.224;8.572;2022-07-10T08:51:41;5.13;;;3.55;;
9541;SDS011;4809;48.224;8.572;2022-07-10T08:54:19;3.15;;;2.90;;
9541;SDS011;4809;48.224;8.572;2022-07-10T08:56:46;4.43;;;3.03;;
9541;SDS011;4809;48.224;8.572;2022-07-10T08:59:12;3.60;;;3.03;;
9541;SDS011;4809;48.224;8.572;2022-07-10T09:01:40;3.50;;;2.95;;
9541;SDS011;4809;48.224;8.572;2022-07-10T09:04:05;4.28;;;3.05;;
9541;SDS011;4809;48.224;8.572;2022-07-10T09:06:31;3.42;;;2.95;;
9541;SDS011;4809;48.224;8.572;2022-07-10T09:09:02;3.58;;;2.92;;
9541;SDS011;4809;48.224;8.572;2022-07-10T09:11:29;5.30;;;3.33;;
9541;SDS011;4809;48.224;8.572;2022-07-10T09:13:59;5.68;;;3.10;;
9541;SDS011;4809;48.224;8.572;2022-07-10T09:16:32;3.20;;;2.90;;
9541;SDS011;4809;48.224;8.572;2022-07-10T09:21:54;4.25;;;3.30;;
9541;SDS011;4809;48.224;8.572;2022-07-10T09:24:41;2.92;;;2.65;;
9541;SDS011;4809;48.224;8.572;2022-07-10T09:27:10;3.65;;;2.72;;
9541;SDS011;4809;48.224;8.572;2022-07-10T09:30:11;4.22;;;2.80;;
9541;SDS011;4809;48.224;8.572;2022-07-10T09:32:30;4.75;;;3.00;;
9541;SDS011;4809;48.224;8.572;2022-07-10T09:34:56;3.33;;;2.80;;
9541;SDS011;4809;48.224;8.572;2022-07-10T09:37:42;5.30;;;3.08;;
9541;SDS011;4809;48.224;8.572;2022-07-10T09:40:09;3.20;;;2.85;;
9541;SDS011;4809;48.224;8.572;2022-07-10T09:47:39;5.00;;;2.80;;
9541;SDS011;4809;48.224;8.572;2022-07-10T09:50:21;5.03;;;3.10;;
9541;SDS011;4809;48.224;8.572;2022-07-10T09:52:54;3.67;;;2.90;;
9541;SDS011;4809;48.224;8.572;2022-07-10T09:55:22;4.05;;;3.00;;
9541;SDS011;4809;48.224;8.572;2022-07-10T09:57:58;3.53;;;3.15;;
9541;SDS011;4809;48.224;8.572;2022-07-10T10:00:38;3.22;;;2.80;;
9541;SDS011;4809;48.224;8.572;2022-07-10T10:03:10;4.63;;;2.90;;
9541;SDS011;4809;48.224;8.572;2022-07-10T10:05:55;4.10;;;3.13;;
9541;SDS011;4809;48.224;8.572;2022-07-10T10:08:29;3.00;;;2.75;;
9541;SDS011;4809;48.224;8.572;2022-07-10T10:11:00;3.53;;;2.70;;
9541;SDS011;4809;48.224;8.572;2022-07-10T10:13:28;3.30;;;2.70;;
9541;SDS011;4809;48.224;8.572;2022-07-10T10:15:55;3.85;;;3.00;;
9541;SDS011;4809;48.224;8.572;2022-07-10T10:18:25;4.45;;;2.90;;
9541;SDS011;4809;48.224;8.572;2022-07-10T10:20:52;3.13;;;2.80;;
9541;SDS011;4809;48.224;8.572;2022-07-10T10:23:19;3.45;;;2.80;;
9541;SDS011;4809;48.224;8.572;2022-07-10T10:25:53;3.25;;;2.97;;
9541;SDS011;4809;48.224;8.572;2022-07-10T10:28:19;4.90;;;3.10;;
9541;SDS011;4809;48.224;8.572;2022-07-10T10:30:48;4.63;;;2.80;;
9541;SDS011;4809;48.224;8.572;2022-07-10T10:36:04;4.88;;;2.80;;
9541;SDS011;4809;48.224;8.572;2022-07-10T10:41:26;3.10;;;2.80;;
9541;SDS011;4809;48.224;8.572;2022-07-10T10:49:19;8.60;;;6.78;;
9541;SDS011;4809;48.224;8.572;2022-07-10T10:51:58;5.90;;;4.28;;
9541;SDS011;4809;48.224;8.572;2022-07-10T10:54:24;4.50;;;2.95;;
9541;SDS011;4809;48.224;8.572;2022-07-10T10:59:46;3.20;;;2.80;;
9541;SDS011;4809;48.224;8.572;2022-07-10T11:02:32;3.20;;;2.88;;
9541;SDS011;4809;48.224;8.572;2022-07-10T11:15:33;2.97;;;2.60;;
9541;SDS011;4809;48.224;8.572;2022-07-10T11:18:04;3.17;;;2.75;;
9541;SDS011;4809;48.224;8.572;2022-07-10T11:20:38;3.50;;;2.60;;
9541;SDS011;4809;48.224;8.572;2022-07-10T11:26:08;3.05;;;2.70;;
9541;SDS011;4809;48.224;8.572;2022-07-10T11:31:11;2.83;;;2.60;;
9541;SDS011;4809;48.224;8.572;2022-07-10T11:33:40;3.08;;;2.75;;
9541;SDS011;4809;48.224;8.572;2022-07-10T11:36:12;2.85;;;2.63;;
9541;SDS011;4809;48.224;8.572;2022-07-10T11:38:42;2.85;;;2.65;;
9541;SDS011;4809;48.224;8.572;2022-07-10T11:41:15;3.08;;;2.60;;
9541;SDS011;4809;48.224;8.572;2022-07-10T11:43:49;3.08;;;2.70;;
9541;SDS011;4809;48.224;8.572;2022-07-10T11:46:17;3.15;;;2.65;;
9541;SDS011;4809;48.224;8.572;2022-07-10T11:48:46;3.17;;;2.80;;
9541;SDS011;4809;48.224;8.572;2022-07-10T11:51:17;2.95;;;2.72;;
9541;SDS011;4809;48.224;8.572;2022-07-10T11:59:08;2.70;;;2.45;;
9541;SDS011;4809;48.224;8.572;2022-07-10T12:01:40;2.70;;;2.50;;
9541;SDS011;4809;48.224;8.572;2022-07-10T12:04:10;3.17;;;2.65;;
9541;SDS011;4809;48.224;8.572;2022-07-10T12:06:37;4.05;;;2.75;;
9541;SDS011;4809;48.224;8.572;2022-07-10T12:09:09;4.13;;;2.70;;
9541;SDS011;4809;48.224;8.572;2022-07-10T12:11:36;3.05;;;2.80;;
9541;SDS011;4809;48.224;8.572;2022-07-10T12:14:09;3.28;;;2.80;;
9541;SDS011;4809;48.224;8.572;2022-07-10T12:16:43;3.80;;;2.50;;
9541;SDS011;4809;48.224;8.572;2022-07-10T12:19:17;2.72;;;2.50;;
9541;SDS011;4809;48.224;8.572;2022-07-10T12:21:47;2.70;;;2.50;;
9541;SDS011;4809;48.224;8.572;2022-07-10T12:24:14;2.92;;;2.50;;
9541;SDS011;4809;48.224;8.572;2022-07-10T12:26:42;2.90;;;2.70;;
9541;SDS011;4809;48.224;8.572;2022-07-10T12:29:19;3.33;;;2.60;;
9541;SDS011;4809;48.224;8.572;2022-07-10T12:31:53;4.07;;;2.70;;
9541;SDS011;4809;48.224;8.572;2022-07-10T12:34:20;2.80;;;2.60;;
9541;SDS011;4809;48.224;8.572;2022-07-10T12:37:08;3.28;;;2.80;;
9541;SDS011;4809;48.224;8.572;2022-07-10T12:39:36;5.03;;;3.13;;
9541;SDS011;4809;48.224;8.572;2022-07-10T12:42:06;3.03;;;2.63;;
9541;SDS011;4809;48.224;8.572;2022-07-10T12:47:06;2.92;;;2.60;;
9541;SDS011;4809;48.224;8.572;2022-07-10T12:52:35;2.92;;;2.40;;
9541;SDS011;4809;48.224;8.572;2022-07-10T13:00:10;3.00;;;2.60;;
9541;SDS011;4809;48.224;8.572;2022-07-10T13:02:38;4.43;;;2.50;;
9541;SDS011;4809;48.224;8.572;2022-07-10T13:05:04;3.33;;;2.65;;
9541;SDS011;4809;48.224;8.572;2022-07-10T13:09:58;3.50;;;2.70;;
9541;SDS011;4809;48.224;8.572;2022-07-10T13:12:31;3.65;;;2.67;;
9541;SDS011;4809;48.224;8.572;2022-07-10T13:14:58;2.75;;;2.55;;
9541;SDS011;4809;48.224;8.572;2022-07-10T13:17:24;3.38;;;2.50;;
9541;SDS011;4809;48.224;8.572;2022-07-10T13:19:50;2.70;;;2.50;;
9541;SDS011;4809;48.224;8.572;2022-07-10T13:22:16;2.63;;;2.40;;
9541;SDS011;4809;48.224;8.572;2022-07-10T13:24:42;2.53;;;2.33;;
9541;SDS011;4809;48.224;8.572;2022-07-10T13:27:08;4.07;;;2.47;;
9541;SDS011;4809;48.224;8.572;2022-07-10T13:29:34;3.58;;;2.50;;
9541;SDS011;4809;48.224;8.572;2022-07-10T13:31:59;3.58;;;2.55;;
9541;SDS011;4809;48.224;8.572;2022-07-10T13:34:25;3.85;;;2.50;;
9541;SDS011;4809;48.224;8.572;2022-07-10T13:36:51;2.83;;;2.47;;
9541;SDS011;4809;48.224;8.572;2022-07-10T13:39:19;3.10;;;2.65;;
9541;SDS011;4809;48.224;8.572;2022-07-10T13:41:44;2.47;;;2.28;;
9541;SDS011;4809;48.224;8.572;2022-07-10T13:44:10;3.60;;;2.30;;
9541;SDS011;4809;48.224;8.572;2022-07-10T13:46:36;2.95;;;2.50;;
9541;SDS011;4809;48.224;8.572;2022-07-10T13:49:02;2.60;;;2.40;;
9541;SDS011;4809;48.224;8.572;2022-07-10T13:51:28;2.60;;;2.40;;
9541;SDS011;4809;48.224;8.572;2022-07-10T13:53:54;4.28;;;2.50;;
9541;SDS011;4809;48.224;8.572;2022-07-10T13:56:20;3.00;;;2.40;;
9541;SDS011;4809;48.224;8.572;2022-07-10T13:58:45;2.67;;;2.38;;
9541;SDS011;4809;48.224;8.572;2022-07-10T14:01:11;3.22;;;2.33;;
9541;SDS011;4809;48.224;8.572;2022-07-10T14:03:37;2.85;;;2.40;;
9541;SDS011;4809;48.224;8.572;2022-07-10T14:06:03;3.72;;;2.58;;
9541;SDS011;4809;48.224;8.572;2022-07-10T14:08:29;3.80;;;2.20;;
9541;SDS011;4809;48.224;8.572;2022-07-10T14:10:54;2.45;;;2.20;;
9541;SDS011;4809;48.224;8.572;2022-07-10T14:13:20;2.42;;;2.22;;
9541;SDS011;4809;48.224;8.572;2022-07-10T14:15:45;2.22;;;2.00;;
9541;SDS011;4809;48.224;8.572;2022-07-10T14:18:13;2.35;;;2.03;;
9541;SDS011;4809;48.224;8.572;2022-07-10T14:20:58;3.13;;;2.22;;
9541;SDS011;4809;48.224;8.572;2022-07-10T14:23:27;2.70;;;2.30;;
9541;SDS011;4809;48.224;8.572;2022-07-10T14:25:53;2.67;;;2.03;;
9541;SDS011;4809;48.224;8.572;2022-07-10T14:28:19;2.55;;;2.10;;
9541;SDS011;4809;48.224;8.572;2022-07-10T14:30:45;2.83;;;1.90;;
9541;SDS011;4809;48.224;8.572;2022-07-10T14:33:11;2.10;;;1.95;;
9541;SDS011;4809;48.224;8.572;2022-07-10T14:35:37;1.88;;;1.77;;
9541;SDS011;4809;48.224;8.572;2022-07-10T14:38:03;2.78;;;1.90;;
9541;SDS011;4809;48.224;8.572;2022-07-10T14:40:28;3.10;;;2.00;;
9541;SDS011;4809;48.224;8.572;2022-07-10T14:42:55;1.80;;;1.63;;
9541;SDS011;4809;48.224;8.572;2022-07-10T14:45:22;2.00;;;1.80;;
9541;SDS011;4809;48.224;8.572;2022-07-10T14:47:49;3.33;;;1.80;;
9541;SDS011;4809;48.224;8.572;2022-07-10T14:50:15;4.50;;;1.63;;
9541;SDS011;4809;48.224;8.572;2022-07-10T14:52:44;1.45;;;1.45;;
9541;SDS011;4809;48.224;8.572;2022-07-10T14:55:10;1.70;;;1.50;;
9541;SDS011;4809;48.224;8.572;2022-07-10T14:57:36;1.70;;;1.50;;
9541;SDS011;4809;48.224;8.572;2022-07-10T15:00:01;2.25;;;1.30;;
9541;SDS011;4809;48.224;8.572;2022-07-10T15:02:28;1.98;;;1.25;;
9541;SDS011;4809;48.224;8.572;2022-07-10T15:04:54;3.78;;;1.45;;
9541;SDS011;4809;48.224;8.572;2022-07-10T15:07:19;1.70;;;1.20;;
9541;SDS011;4809;48.224;8.572;2022-07-10T15:09:45;1.48;;;1.30;;
9541;SDS011;4809;48.224;8.572;2022-07-10T15:12:10;1.60;;;1.50;;
9541;SDS011;4809;48.224;8.572;2022-07-10T15:14:36;2.97;;;1.25;;
9541;SDS011;4809;48.224;8.572;2022-07-10T15:17:02;5.32;;;1.30;;
9541;SDS011;4809;48.224;8.572;2022-07-10T15:19:28;1.40;;;1.15;;
9541;SDS011;4809;48.224;8.572;2022-07-10T15:21:54;1.20;;;1.05;;
9541;SDS011;4809;48.224;8.572;2022-07-10T15:24:20;2.30;;;1.40;;
9541;SDS011;4809;48.224;8.572;2022-07-10T15:26:46;1.45;;;1.30;;
9541;SDS011;4809;48.224;8.572;2022-07-10T15:29:11;2.08;;;1.20;;
9541;SDS011;4809;48.224;8.572;2022-07-10T15:31:38;3.95;;;2.78;;
9541;SDS011;4809;48.224;8.572;2022-07-10T15:34:07;1.88;;;1.30;;
9541;SDS011;4809;48.224;8.572;2022-07-10T15:36:34;1.45;;;1.02;;
9541;SDS011;4809;48.224;8.572;2022-07-10T15:39:00;2.08;;;1.05;;
9541;SDS011;4809;48.224;8.572;2022-07-10T15:41:26;1.63;;;0.98;;
9541;SDS011;4809;48.224;8.572;2022-07-10T15:43:52;3.28;;;1.35;;
9541;SDS011;4809;48.224;8.572;2022-07-10T15:46:18;2.33;;;1.30;;
9541;SDS011;4809;48.224;8.572;2022-07-10T15:48:43;4.47;;;3.13;;
9541;SDS011;4809;48.224;8.572;2022-07-10T15:51:10;2.38;;;1.35;;
9541;SDS011;4809;48.224;8.572;2022-07-10T15:53:36;5.18;;;1.60;;
9541;SDS011;4809;48.224;8.572;2022-07-10T15:56:02;2.45;;;1.05;;
9541;SDS011;4809;48.224;8.572;2022-07-10T15:58:29;2.00;;;1.20;;
9541;SDS011;4809;48.224;8.572;2022-07-10T16:00:54;1.52;;;1.08;;
9541;SDS011;4809;48.224;8.572;2022-07-10T16:03:20;1.27;;;1.13;;
9541;SDS011;4809;48.224;8.572;2022-07-10T16:05:46;3.47;;;1.42;;
9541;SDS011;4809;48.224;8.572;2022-07-10T16:08:11;2.22;;;1.50;;
9541;SDS011;4809;48.224;8.572;2022-07-10T16:10:38;3.00;;;1.30;;
9541;SDS011;4809;48.224;8.572;2022-07-10T16:13:04;1.20;;;1.10;;
9541;SDS011;4809;48.224;8.572;2022-07-10T16:15:30;1.60;;;1.08;;